createdAt,value
2023-05-13T00:00:00.092Z,12.14
2023-05-13T00:02:30.690Z,12.13
2023-05-13T00:04:58.653Z,12.12
2023-05-13T00:07:26.402Z,12.11
2023-05-13T00:09:54.336Z,12.10
2023-05-13T00:12:22.708Z,12.10
2023-05-13T00:14:50.637Z,12.10
2023-05-13T00:17:18.500Z,12.09
2023-05-13T00:19:46.398Z,12.09
2023-05-13T00:22:14.692Z,12.07
2023-05-13T00:24:42.623Z,12.06
2023-05-13T00:27:11.517Z,12.05
2023-05-13T00:29:39.768Z,12.03
2023-05-13T00:32:07.878Z,12.01
2023-05-13T00:34:36.305Z,12.01
2023-05-13T00:37:05.019Z,12.00
2023-05-13T00:39:32.877Z,12.00
2023-05-13T00:42:00.882Z,12.00
2023-05-13T00:44:28.789Z,12.00
2023-05-13T00:46:57.344Z,12.01
2023-05-13T00:49:25.599Z,12.01
2023-05-13T00:51:55.241Z,12.00
2023-05-13T00:54:23.227Z,11.99
2023-05-13T00:56:54.536Z,11.98
2023-05-13T00:59:24.060Z,11.97
2023-05-13T01:02:06.618Z,11.97
2023-05-13T01:04:37.750Z,11.97
2023-05-13T01:07:09.806Z,11.97
2023-05-13T01:09:43.696Z,11.97
2023-05-13T01:12:15.453Z,11.98
2023-05-13T01:14:52.305Z,11.96
2023-05-13T01:17:24.647Z,11.95
2023-05-13T01:19:54.604Z,11.94
2023-05-13T01:22:22.720Z,11.95
2023-05-13T01:24:50.719Z,11.95
2023-05-13T01:27:19.388Z,11.94
2023-05-13T01:29:47.845Z,11.93
2023-05-13T01:32:18.188Z,11.92
2023-05-13T01:34:46.967Z,11.92
2023-05-13T01:37:16.147Z,11.92
2023-05-13T01:39:44.783Z,11.92
2023-05-13T01:42:14.552Z,11.90
2023-05-13T01:44:43.702Z,11.89
2023-05-13T01:47:12.174Z,11.88
2023-05-13T01:49:40.156Z,11.87
2023-05-13T01:52:08.134Z,11.86
2023-05-13T01:54:36.041Z,11.85
2023-05-13T01:57:07.246Z,11.84
2023-05-13T01:59:35.129Z,11.83
2023-05-13T02:02:04.219Z,11.83
2023-05-13T02:04:32.314Z,11.83
2023-05-13T02:07:00.198Z,11.83
2023-05-13T02:09:30.403Z,11.83
2023-05-13T02:11:58.890Z,11.83
2023-05-13T02:14:26.753Z,11.83
2023-05-13T02:16:56.015Z,11.82
2023-05-13T02:19:24.955Z,11.81
2023-05-13T02:21:52.803Z,11.81
2023-05-13T02:24:21.621Z,11.80
2023-05-13T02:26:49.395Z,11.78
2023-05-13T02:29:17.294Z,11.78
2023-05-13T02:31:45.064Z,11.77
2023-05-13T02:34:13.005Z,11.76
2023-05-13T02:36:41.473Z,11.75
2023-05-13T02:39:09.900Z,11.75
2023-05-13T02:41:38.187Z,11.75
2023-05-13T02:44:06.334Z,11.75
2023-05-13T02:46:34.545Z,11.75
2023-05-13T02:49:02.633Z,11.75
2023-05-13T02:51:32.194Z,11.74
2023-05-13T02:54:00.548Z,11.73
2023-05-13T02:56:30.211Z,11.72
2023-05-13T02:58:59.279Z,11.71
2023-05-13T03:01:27.393Z,11.71
2023-05-13T03:03:55.601Z,11.71
2023-05-13T03:06:23.526Z,11.70
2023-05-13T03:08:51.429Z,11.70
2023-05-13T03:11:19.244Z,11.69
2023-05-13T03:13:46.993Z,11.68
2023-05-13T03:16:15.726Z,11.69
2023-05-13T03:18:43.792Z,11.68
2023-05-13T03:21:11.786Z,11.68
2023-05-13T03:23:40.165Z,11.68
2023-05-13T03:26:08.311Z,11.67
2023-05-13T03:28:36.224Z,11.67
2023-05-13T03:31:04.652Z,11.67
2023-05-13T03:33:34.726Z,11.66
2023-05-13T03:36:02.855Z,11.66
2023-05-13T03:38:32.625Z,11.65
2023-05-13T03:41:00.740Z,11.64
2023-05-13T03:43:29.034Z,11.64
2023-05-13T03:46:00.218Z,11.64
2023-05-13T03:48:27.997Z,11.63
2023-05-13T03:50:56.887Z,11.63
2023-05-13T03:53:25.000Z,11.64
2023-05-13T03:55:54.234Z,11.64
2023-05-13T03:58:22.935Z,11.63
2023-05-13T04:00:50.999Z,11.64
2023-05-13T04:03:19.462Z,11.65
2023-05-13T04:05:48.137Z,11.64
2023-05-13T04:08:16.099Z,11.66
2023-05-13T04:10:44.678Z,11.65
2023-05-13T04:13:12.528Z,11.65
2023-05-13T04:15:40.425Z,11.66
2023-05-13T04:18:08.554Z,11.66
2023-05-13T04:20:40.284Z,11.66
2023-05-13T04:23:08.350Z,11.67
2023-05-13T04:25:37.519Z,11.66
2023-05-13T04:28:05.766Z,11.66
2023-05-13T04:30:37.579Z,11.66
2023-05-13T04:33:06.864Z,11.65
2023-05-13T04:35:35.687Z,11.66
2023-05-13T04:38:05.173Z,11.66
2023-05-13T04:40:33.266Z,11.65
2023-05-13T04:43:06.621Z,11.65
2023-05-13T04:45:41.590Z,11.65
2023-05-13T04:48:11.984Z,11.65
2023-05-13T04:50:44.598Z,11.66
2023-05-13T04:53:13.210Z,11.66
2023-05-13T04:55:41.170Z,11.66
2023-05-13T04:58:09.035Z,11.66
2023-05-13T05:00:37.521Z,11.66
2023-05-13T05:03:05.642Z,11.67
2023-05-13T05:05:33.878Z,11.69
2023-05-13T05:08:02.091Z,11.69
2023-05-13T05:10:30.273Z,11.70
2023-05-13T05:13:00.538Z,11.72
2023-05-13T05:15:29.976Z,11.72
2023-05-13T05:18:00.152Z,11.73
2023-05-13T05:20:28.814Z,11.74
2023-05-13T05:23:00.223Z,11.74
2023-05-13T05:25:29.968Z,11.75
2023-05-13T05:27:58.129Z,11.76
2023-05-13T05:30:26.415Z,11.78
2023-05-13T05:33:02.040Z,11.79
2023-05-13T05:35:30.144Z,11.80
2023-05-13T05:37:58.640Z,11.81
2023-05-13T05:40:26.602Z,11.82
2023-05-13T05:42:54.778Z,11.83
2023-05-13T05:45:23.011Z,11.84
2023-05-13T05:47:51.241Z,11.86
2023-05-13T05:50:19.696Z,11.87
2023-05-13T05:52:48.098Z,11.88
2023-05-13T05:55:16.700Z,11.89
2023-05-13T05:57:44.572Z,11.91
2023-05-13T06:00:13.055Z,11.93
2023-05-13T06:02:43.610Z,11.95
2023-05-13T06:05:13.101Z,11.96
2023-05-13T06:07:41.500Z,11.97
2023-05-13T06:10:09.706Z,11.99
2023-05-13T06:12:37.596Z,12.01
2023-05-13T06:15:10.655Z,12.02
2023-05-13T06:17:38.908Z,12.03
2023-05-13T06:20:07.146Z,12.05
2023-05-13T06:22:34.989Z,12.07
2023-05-13T06:25:02.870Z,12.09
2023-05-13T06:27:31.117Z,12.11
2023-05-13T06:30:00.789Z,12.12
2023-05-13T06:32:28.592Z,12.14
2023-05-13T06:34:56.634Z,12.16
2023-05-13T06:37:24.857Z,12.19
2023-05-13T06:39:52.729Z,12.20
2023-05-13T06:42:20.961Z,12.22
2023-05-13T06:44:56.337Z,12.24
2023-05-13T06:47:28.641Z,12.26
2023-05-13T06:49:56.464Z,12.27
2023-05-13T06:52:24.246Z,12.30
2023-05-13T06:54:52.094Z,12.31
2023-05-13T06:57:20.761Z,12.33
2023-05-13T06:59:49.854Z,12.35
2023-05-13T07:02:17.751Z,12.37
2023-05-13T07:04:45.764Z,12.39
2023-05-13T07:07:13.901Z,12.40
2023-05-13T07:09:41.819Z,12.42
2023-05-13T07:12:11.304Z,12.44
2023-05-13T07:14:39.295Z,12.46
2023-05-13T07:17:07.325Z,12.47
2023-05-13T07:19:35.226Z,12.48
2023-05-13T07:22:03.112Z,12.50
2023-05-13T07:24:30.987Z,12.53
2023-05-13T07:26:58.857Z,12.56
2023-05-13T07:29:27.673Z,12.59
2023-05-13T07:31:55.887Z,12.62
2023-05-13T07:34:23.987Z,12.65
2023-05-13T07:36:51.921Z,12.69
2023-05-13T07:39:19.779Z,12.72
2023-05-13T07:41:47.554Z,12.76
2023-05-13T07:44:15.821Z,12.80
2023-05-13T07:46:43.716Z,12.84
2023-05-13T07:49:11.562Z,12.87
2023-05-13T07:51:39.421Z,12.90
2023-05-13T07:54:07.348Z,12.93
2023-05-13T07:56:35.477Z,12.96
2023-05-13T07:59:03.604Z,12.98
2023-05-13T08:01:31.663Z,13.01
2023-05-13T08:03:59.725Z,13.04
2023-05-13T08:06:27.984Z,13.05
2023-05-13T08:08:55.797Z,13.07
2023-05-13T08:11:23.700Z,13.08
2023-05-13T08:13:51.906Z,13.10
2023-05-13T08:16:20.017Z,13.12
2023-05-13T08:18:47.986Z,13.14
2023-05-13T08:21:15.874Z,13.17
2023-05-13T08:23:45.964Z,13.20
2023-05-13T08:26:14.406Z,13.23
2023-05-13T08:28:42.755Z,13.25
2023-05-13T08:31:13.922Z,13.27
2023-05-13T08:33:42.832Z,13.30
2023-05-13T08:36:10.896Z,13.33
2023-05-13T08:38:38.883Z,13.36
2023-05-13T08:41:06.795Z,13.39
2023-05-13T08:43:35.233Z,13.41
2023-05-13T08:46:04.245Z,13.44
2023-05-13T08:48:33.457Z,13.47
2023-05-13T08:51:02.544Z,13.50
2023-05-13T08:53:31.720Z,13.52
2023-05-13T08:56:00.475Z,13.54
2023-05-13T08:58:28.410Z,13.55
2023-05-13T09:00:56.910Z,13.57
2023-05-13T09:03:27.876Z,13.58
2023-05-13T09:05:55.745Z,13.58
2023-05-13T09:08:23.625Z,13.57
2023-05-13T09:10:51.678Z,13.57
2023-05-13T09:13:19.537Z,13.57
2023-05-13T09:15:48.159Z,13.57
2023-05-13T09:18:18.688Z,13.57
2023-05-13T09:20:48.305Z,13.57
2023-05-13T09:23:17.475Z,13.56
2023-05-13T09:25:45.431Z,13.56
2023-05-13T09:28:15.200Z,13.55
2023-05-13T09:30:46.152Z,13.55
2023-05-13T09:33:15.791Z,13.55
2023-05-13T09:35:44.859Z,13.54
2023-05-13T09:38:16.610Z,13.55
2023-05-13T09:40:54.667Z,13.56
2023-05-13T09:43:23.593Z,13.55
2023-05-13T09:45:55.761Z,13.57
2023-05-13T09:48:25.878Z,13.57
2023-05-13T09:50:55.409Z,13.58
2023-05-13T09:53:23.991Z,13.60
2023-05-13T09:55:53.048Z,13.61
2023-05-13T09:58:22.075Z,13.62
2023-05-13T10:00:51.312Z,13.62
2023-05-13T10:03:19.325Z,13.63
2023-05-13T10:05:48.714Z,13.63
2023-05-13T10:08:17.790Z,13.64
2023-05-13T10:10:46.702Z,13.65
2023-05-13T10:13:15.858Z,13.66
2023-05-13T10:15:51.182Z,13.67
2023-05-13T10:18:20.060Z,13.68
2023-05-13T10:20:53.211Z,13.69
2023-05-13T10:23:22.810Z,13.69
2023-05-13T10:25:52.112Z,13.70
2023-05-13T10:28:20.508Z,13.71
2023-05-13T10:30:51.925Z,13.71
2023-05-13T10:33:20.343Z,13.72
2023-05-13T10:36:03.868Z,13.72
2023-05-13T10:38:38.172Z,13.72
2023-05-13T10:41:22.804Z,13.73
2023-05-13T10:43:56.845Z,13.73
2023-05-13T10:46:25.064Z,13.75
2023-05-13T10:48:58.287Z,13.76
2023-05-13T10:51:26.904Z,13.77
2023-05-13T10:53:55.987Z,13.79
2023-05-13T10:56:25.371Z,13.80
2023-05-13T10:59:03.725Z,13.83
2023-05-13T11:01:35.865Z,13.85
2023-05-13T11:04:05.253Z,13.87
2023-05-13T11:06:37.574Z,13.90
2023-05-13T11:09:06.511Z,13.93
2023-05-13T11:11:35.729Z,13.96
2023-05-13T11:14:19.411Z,13.99
2023-05-13T11:16:49.018Z,14.03
2023-05-13T11:19:25.962Z,14.07
2023-05-13T11:21:56.317Z,14.11
2023-05-13T11:24:24.712Z,14.14
2023-05-13T11:26:56.683Z,14.19
2023-05-13T11:29:27.828Z,14.22
2023-05-13T11:32:00.201Z,14.26
2023-05-13T11:34:29.349Z,14.30
2023-05-13T11:36:57.483Z,14.34
2023-05-13T11:39:28.215Z,14.38
2023-05-13T11:42:01.891Z,14.42
2023-05-13T11:44:30.176Z,14.47
2023-05-13T11:46:59.420Z,14.51
2023-05-13T11:49:41.083Z,14.54
2023-05-13T11:52:12.865Z,14.59
2023-05-13T11:54:43.107Z,14.62
2023-05-13T11:57:32.835Z,14.66
2023-05-13T12:00:05.529Z,14.70
2023-05-13T12:02:37.979Z,14.75
2023-05-13T12:05:07.542Z,14.78
2023-05-13T12:07:36.437Z,14.81
2023-05-13T12:10:05.514Z,14.84
2023-05-13T12:12:34.924Z,14.87
2023-05-13T12:15:03.933Z,14.90
2023-05-13T12:17:32.025Z,14.92
2023-05-13T12:20:11.790Z,14.95
2023-05-13T12:22:43.089Z,14.98
2023-05-13T12:25:29.662Z,15.00
2023-05-13T12:27:57.628Z,15.03
2023-05-13T12:30:25.920Z,15.05
2023-05-13T12:32:58.561Z,15.08
2023-05-13T12:35:26.592Z,15.11
2023-05-13T12:38:04.779Z,15.15
2023-05-13T12:40:32.648Z,15.18
2023-05-13T12:43:01.418Z,15.21
2023-05-13T12:45:30.597Z,15.25
2023-05-13T12:47:59.053Z,15.29
2023-05-13T12:50:27.133Z,15.33
2023-05-13T12:52:55.020Z,15.37
2023-05-13T12:55:23.097Z,15.41
2023-05-13T12:57:59.649Z,15.44
2023-05-13T13:00:28.097Z,15.48
2023-05-13T13:02:56.456Z,15.51
2023-05-13T13:05:25.126Z,15.55
2023-05-13T13:07:53.300Z,15.59
2023-05-13T13:10:21.163Z,15.62
2023-05-13T13:12:49.717Z,15.66
2023-05-13T13:15:17.684Z,15.70
2023-05-13T13:17:45.596Z,15.73
2023-05-13T13:20:13.544Z,15.77
2023-05-13T13:22:41.623Z,15.81
2023-05-13T13:25:09.704Z,15.86
2023-05-13T13:27:37.696Z,15.91
2023-05-13T13:30:05.896Z,15.95
2023-05-13T13:32:35.553Z,16.00
2023-05-13T13:35:05.714Z,16.05
2023-05-13T13:37:34.304Z,16.11
2023-05-13T13:40:03.652Z,16.15
2023-05-13T13:42:43.350Z,16.19
2023-05-13T13:45:13.470Z,16.23
2023-05-13T13:47:41.866Z,16.26
2023-05-13T13:50:10.111Z,16.29
2023-05-13T13:52:38.037Z,16.31
2023-05-13T13:55:06.394Z,16.34
2023-05-13T13:57:34.380Z,16.37
2023-05-13T14:00:02.283Z,16.39
2023-05-13T14:02:33.068Z,16.42
2023-05-13T14:05:01.251Z,16.43
2023-05-13T14:07:29.025Z,16.45
2023-05-13T14:09:58.458Z,16.47
2023-05-13T14:12:27.540Z,16.48
2023-05-13T14:14:55.457Z,16.49
2023-05-13T14:17:23.493Z,16.51
2023-05-13T14:19:51.937Z,16.52
2023-05-13T14:22:19.802Z,16.53
2023-05-13T14:24:48.014Z,16.53
2023-05-13T14:27:16.104Z,16.54
2023-05-13T14:29:45.603Z,16.55
2023-05-13T14:32:13.870Z,16.56
2023-05-13T14:34:42.500Z,16.55
2023-05-13T14:37:10.442Z,16.55
2023-05-13T14:39:38.210Z,16.54
2023-05-13T14:42:06.598Z,16.54
2023-05-13T14:44:34.480Z,16.54
2023-05-13T14:47:02.679Z,16.53
2023-05-13T14:49:30.645Z,16.53
2023-05-13T14:51:58.452Z,16.52
2023-05-13T14:54:26.177Z,16.51
2023-05-13T14:56:54.037Z,16.49
2023-05-13T14:59:21.911Z,16.46
2023-05-13T15:01:49.723Z,16.45
2023-05-13T15:04:17.533Z,16.42
2023-05-13T15:06:45.431Z,16.38
2023-05-13T15:09:13.199Z,16.34
2023-05-13T15:11:42.248Z,16.30
2023-05-13T15:14:10.168Z,16.28
2023-05-13T15:16:38.041Z,16.26
2023-05-13T15:19:07.291Z,16.25
2023-05-13T15:21:35.322Z,16.24
2023-05-13T15:24:03.193Z,16.23
2023-05-13T15:26:31.093Z,16.21
2023-05-13T15:28:58.896Z,16.21
2023-05-13T15:31:26.860Z,16.19
2023-05-13T15:33:54.691Z,16.17
2023-05-13T15:36:22.571Z,16.15
2023-05-13T15:38:50.349Z,16.13
2023-05-13T15:41:18.154Z,16.11
2023-05-13T15:43:45.945Z,16.07
2023-05-13T15:46:14.099Z,16.03
2023-05-13T15:48:42.064Z,15.99
2023-05-13T15:51:09.990Z,15.95
2023-05-13T15:53:37.853Z,15.92
2023-05-13T15:56:05.879Z,15.89
2023-05-13T15:58:33.805Z,15.86
2023-05-13T16:01:01.581Z,15.82
2023-05-13T16:03:29.337Z,15.78
2023-05-13T16:05:57.346Z,15.74
2023-05-13T16:08:25.278Z,15.69
2023-05-13T16:10:53.209Z,15.64
2023-05-13T16:13:21.632Z,15.60
2023-05-13T16:15:49.827Z,15.56
2023-05-13T16:18:17.627Z,15.53
2023-05-13T16:20:45.678Z,15.51
2023-05-13T16:23:13.495Z,15.49
2023-05-13T16:25:42.756Z,15.48
2023-05-13T16:28:10.830Z,15.46
2023-05-13T16:30:39.473Z,15.44
2023-05-13T16:33:09.551Z,15.42
2023-05-13T16:35:37.627Z,15.39
2023-05-13T16:38:05.892Z,15.35
2023-05-13T16:40:33.879Z,15.33
2023-05-13T16:43:03.930Z,15.31
2023-05-13T16:45:32.220Z,15.29
2023-05-13T16:48:00.194Z,15.26
2023-05-13T16:50:29.247Z,15.23
2023-05-13T16:52:57.227Z,15.20
2023-05-13T16:55:26.238Z,15.18
2023-05-13T16:57:54.202Z,15.17
2023-05-13T17:00:22.420Z,15.14
2023-05-13T17:02:50.768Z,15.12
2023-05-13T17:05:18.719Z,15.09
2023-05-13T17:07:46.701Z,15.08
2023-05-13T17:10:14.603Z,15.05
2023-05-13T17:12:42.752Z,15.02
2023-05-13T17:15:11.205Z,15.01
2023-05-13T17:17:38.983Z,15.00
2023-05-13T17:20:07.291Z,14.98
2023-05-13T17:22:35.176Z,14.95
2023-05-13T17:25:03.023Z,14.91
2023-05-13T17:27:31.011Z,14.90
2023-05-13T17:29:58.851Z,14.88
2023-05-13T17:32:26.727Z,14.84
2023-05-13T17:34:54.536Z,14.82
2023-05-13T17:37:22.405Z,14.80
2023-05-13T17:39:50.356Z,14.79
2023-05-13T17:42:18.183Z,14.77
2023-05-13T17:44:46.123Z,14.74
2023-05-13T17:47:14.830Z,14.72
2023-05-13T17:49:42.782Z,14.69
2023-05-13T17:52:10.632Z,14.67
2023-05-13T17:54:38.844Z,14.66
2023-05-13T17:57:07.017Z,14.65
2023-05-13T17:59:34.779Z,14.63
2023-05-13T18:02:02.728Z,14.62
2023-05-13T18:04:30.630Z,14.60
2023-05-13T18:06:58.662Z,14.59
2023-05-13T18:09:26.684Z,14.57
2023-05-13T18:11:54.511Z,14.55
2023-05-13T18:14:22.423Z,14.53
2023-05-13T18:16:50.683Z,14.50
2023-05-13T18:19:18.821Z,14.47
2023-05-13T18:21:46.920Z,14.45
2023-05-13T18:24:14.672Z,14.43
2023-05-13T18:26:42.472Z,14.41
2023-05-13T18:29:10.562Z,14.39
2023-05-13T18:31:38.465Z,14.37
2023-05-13T18:34:06.354Z,14.34
2023-05-13T18:36:34.114Z,14.33
2023-05-13T18:39:02.172Z,14.31
2023-05-13T18:41:30.045Z,14.28
2023-05-13T18:43:57.889Z,14.26
2023-05-13T18:46:25.982Z,14.24
2023-05-13T18:48:53.854Z,14.23
2023-05-13T18:51:21.793Z,14.22
2023-05-13T18:53:49.715Z,14.21
2023-05-13T18:56:17.657Z,14.19
2023-05-13T18:58:46.650Z,14.18
2023-05-13T19:01:15.813Z,14.17
2023-05-13T19:03:43.893Z,14.15
2023-05-13T19:06:12.078Z,14.13
2023-05-13T19:08:40.009Z,14.12
2023-05-13T19:11:08.245Z,14.12
2023-05-13T19:13:46.594Z,14.11
2023-05-13T19:16:15.761Z,14.12
2023-05-13T19:18:43.906Z,14.13
2023-05-13T19:21:11.873Z,14.14
2023-05-13T19:23:39.830Z,14.15
2023-05-13T19:26:08.517Z,14.16
2023-05-13T19:28:37.505Z,14.16
2023-05-13T19:31:06.312Z,14.16
2023-05-13T19:33:37.045Z,14.17
2023-05-13T19:36:06.757Z,14.18
2023-05-13T19:38:35.313Z,14.21
2023-05-13T19:41:03.420Z,14.22
2023-05-13T19:43:31.271Z,14.23
2023-05-13T19:45:59.266Z,14.24
2023-05-13T19:48:29.133Z,14.25
2023-05-13T19:50:58.600Z,14.25
2023-05-13T19:53:26.749Z,14.26
2023-05-13T19:55:55.578Z,14.26
2023-05-13T19:58:23.545Z,14.27
2023-05-13T20:00:51.511Z,14.27
2023-05-13T20:03:19.403Z,14.28
2023-05-13T20:05:48.743Z,14.27
2023-05-13T20:08:16.632Z,14.25
2023-05-13T20:10:44.672Z,14.24
2023-05-13T20:13:12.608Z,14.23
2023-05-13T20:15:40.643Z,14.23
2023-05-13T20:18:08.533Z,14.24
2023-05-13T20:20:36.536Z,14.23
2023-05-13T20:23:04.524Z,14.23
2023-05-13T20:25:32.384Z,14.22
2023-05-13T20:28:00.264Z,14.20
2023-05-13T20:30:28.138Z,14.19
2023-05-13T20:32:55.961Z,14.18
2023-05-13T20:35:23.963Z,14.17
2023-05-13T20:37:51.797Z,14.16
2023-05-13T20:40:19.724Z,14.14
2023-05-13T20:42:47.989Z,14.12
2023-05-13T20:45:16.078Z,14.10
2023-05-13T20:47:43.865Z,14.07
2023-05-13T20:50:12.010Z,14.05
2023-05-13T20:52:39.818Z,14.02
2023-05-13T20:55:08.156Z,13.99
2023-05-13T20:57:35.936Z,13.97
2023-05-13T21:00:04.323Z,13.94
2023-05-13T21:02:32.148Z,13.91
2023-05-13T21:05:00.256Z,13.88
2023-05-13T21:07:28.073Z,13.85
2023-05-13T21:09:55.969Z,13.82
2023-05-13T21:12:24.287Z,13.79
2023-05-13T21:14:52.175Z,13.76
2023-05-13T21:17:21.575Z,13.72
2023-05-13T21:19:49.978Z,13.70
2023-05-13T21:22:17.901Z,13.67
2023-05-13T21:24:46.560Z,13.65
2023-05-13T21:27:14.510Z,13.63
2023-05-13T21:29:42.304Z,13.60
2023-05-13T21:32:10.251Z,13.58
2023-05-13T21:34:38.143Z,13.55
2023-05-13T21:37:06.277Z,13.53
2023-05-13T21:39:34.055Z,13.52
2023-05-13T21:42:01.838Z,13.50
2023-05-13T21:44:29.708Z,13.49
2023-05-13T21:46:57.821Z,13.46
2023-05-13T21:49:25.747Z,13.43
2023-05-13T21:51:53.632Z,13.40
2023-05-13T21:54:21.537Z,13.38
2023-05-13T21:56:49.674Z,13.35
2023-05-13T21:59:17.873Z,13.32
2023-05-13T22:01:46.146Z,13.29
2023-05-13T22:04:14.089Z,13.27
2023-05-13T22:06:42.028Z,13.24
2023-05-13T22:09:09.843Z,13.21
2023-05-13T22:11:37.839Z,13.20
2023-05-13T22:14:05.693Z,13.17
2023-05-13T22:16:33.584Z,13.16
2023-05-13T22:19:01.502Z,13.13
2023-05-13T22:21:29.430Z,13.10
2023-05-13T22:23:57.268Z,13.08
2023-05-13T22:26:25.098Z,13.05
2023-05-13T22:28:52.977Z,13.03
2023-05-13T22:31:21.152Z,13.01
2023-05-13T22:33:48.948Z,12.98
2023-05-13T22:36:16.735Z,12.95
2023-05-13T22:38:44.520Z,12.93
2023-05-13T22:41:12.865Z,12.90
2023-05-13T22:43:40.789Z,12.86
2023-05-13T22:46:08.798Z,12.81
2023-05-13T22:48:36.737Z,12.75
2023-05-13T22:51:04.716Z,12.72
2023-05-13T22:53:32.714Z,12.69
2023-05-13T22:56:00.993Z,12.68
2023-05-13T22:58:28.811Z,12.66
2023-05-13T23:00:56.608Z,12.63
2023-05-13T23:03:24.590Z,12.61
2023-05-13T23:05:52.562Z,12.60
2023-05-13T23:08:20.408Z,12.58
2023-05-13T23:10:48.224Z,12.56
2023-05-13T23:13:16.016Z,12.53
2023-05-13T23:15:44.096Z,12.50
2023-05-13T23:18:12.183Z,12.47
2023-05-13T23:20:40.188Z,12.44
2023-05-13T23:23:08.215Z,12.41
2023-05-13T23:25:36.142Z,12.38
2023-05-13T23:28:03.948Z,12.33
2023-05-13T23:30:31.831Z,12.25
2023-05-13T23:32:59.794Z,12.19
2023-05-13T23:35:27.961Z,12.09
2023-05-13T23:37:55.901Z,12.03
2023-05-13T23:40:24.160Z,11.97
2023-05-13T23:42:52.459Z,11.93
2023-05-13T23:45:20.895Z,11.89
2023-05-13T23:47:49.953Z,11.87
2023-05-13T23:50:18.141Z,11.85
2023-05-13T23:52:51.141Z,11.80
2023-05-13T23:55:21.822Z,11.78
2023-05-13T23:57:49.732Z,11.76
